Time;durP1;ratioP1;P1;durP2;ratioP2;P2;SDS_P1;SDS_P2;PMS_P1;PMS_P2;Temp;Humidity;BMP_temperature;BMP_pressure;BME280_temperature;BME280_humidity;BME280_pressure;Samples;Min_cycle;Max_cycle;Signal;HPM_P1;HPM_P2
2022/05/20 00:01:07;;;;;;;26.20;15.05;;;;;;;16.70;84.68;101922.41;5026330;28;20581;-87
2022/05/20 00:03:35;;;;;;;26.55;15.07;;;;;;;16.62;85.13;101920.63;5014091;28;20037;-85
2022/05/20 00:06:02;;;;;;;23.35;13.57;;;;;;;16.58;85.56;101926.38;5024737;28;20095;-87
2022/05/20 00:08:28;;;;;;;22.38;13.57;;;;;;;16.48;86.14;101924.75;5028499;28;20021;-83
2022/05/20 00:10:54;;;;;;;27.27;14.88;;;;;;;16.44;86.30;101926.06;5023910;28;20607;-85
2022/05/20 00:13:22;;;;;;;24.48;15.45;;;;;;;16.43;86.34;101921.00;5027478;28;20045;-83
2022/05/20 00:15:48;;;;;;;24.85;14.98;;;;;;;16.38;86.52;101928.53;5015738;28;20024;-84
2022/05/20 00:18:14;;;;;;;21.80;14.98;;;;;;;16.34;86.66;101917.59;5015340;28;20116;-83
2022/05/20 00:20:39;;;;;;;21.27;15.00;;;;;;;16.32;87.00;101925.59;5032008;28;20029;-83
2022/05/20 00:23:05;;;;;;;26.63;14.70;;;;;;;16.33;86.70;101929.88;5027062;28;20018;-86
2022/05/20 00:25:46;;;;;;;24.00;13.80;;;;;;;16.35;86.38;101932.31;5009880;28;20021;-83
2022/05/20 00:28:24;;;;;;;21.92;13.50;;;;;;;16.30;86.30;101930.19;5029318;28;20506;-83
2022/05/20 00:30:56;;;;;;;25.40;13.43;;;;;;;16.26;86.59;101933.31;5029914;28;20037;-83
2022/05/20 00:33:21;;;;;;;24.63;14.80;;;;;;;16.23;86.58;101923.97;5027382;28;20044;-85
2022/05/20 00:35:47;;;;;;;22.63;14.07;;;;;;;16.22;86.80;101929.38;5011908;28;20052;-82
2022/05/20 00:38:14;;;;;;;26.60;16.77;;;;;;;16.22;86.45;101927.59;5028962;28;20049;-84
2022/05/20 00:40:40;;;;;;;21.65;15.32;;;;;;;16.19;86.46;101934.97;5031073;28;20091;-84
2022/05/20 00:43:08;;;;;;;24.00;15.27;;;;;;;16.19;86.58;101942.81;5027535;28;20762;-84
2022/05/20 00:45:34;;;;;;;23.23;13.60;;;;;;;16.15;86.50;101943.13;5011758;28;20037;-83
2022/05/20 00:48:00;;;;;;;22.35;15.15;;;;;;;16.13;86.71;101939.84;5007223;28;20384;-84
2022/05/20 00:50:25;;;;;;;26.48;16.23;;;;;;;16.10;86.61;101942.78;5026818;28;20041;-83
2022/05/20 00:52:51;;;;;;;26.38;16.42;;;;;;;16.04;86.81;101946.06;5026161;28;20191;-85
2022/05/20 00:55:21;;;;;;;21.42;14.80;;;;;;;15.99;87.05;101950.16;5015609;28;20406;-83
2022/05/20 00:57:52;;;;;;;22.27;13.77;;;;;;;15.96;87.34;101953.94;5029604;28;20083;-83
2022/05/20 01:00:27;;;;;;;23.42;15.82;;;;;;;15.93;87.55;101956.88;5014673;28;20582;-86
2022/05/20 01:02:57;;;;;;;26.58;15.20;;;;;;;15.90;87.86;101957.22;5028738;28;20037;-87
2022/05/20 01:05:29;;;;;;;32.88;16.98;;;;;;;15.86;88.46;101955.88;5026605;28;20120;-86
2022/05/20 01:07:55;;;;;;;25.13;14.77;;;;;;;15.83;88.79;101951.00;5026490;28;20093;-83
2022/05/20 01:10:21;;;;;;;28.48;17.40;;;;;;;15.82;89.12;101951.97;5026182;28;20026;-83
2022/05/20 01:12:51;;;;;;;27.35;18.40;;;;;;;15.82;89.68;101944.13;5029516;28;20543;-84
2022/05/20 01:15:17;;;;;;;27.05;18.42;;;;;;;15.83;89.89;101940.53;5006979;28;20029;-88
2022/05/20 01:17:44;;;;;;;35.20;21.75;;;;;;;15.85;89.85;101936.75;5023135;28;20057;-83
2022/05/20 01:20:19;;;;;;;30.10;19.38;;;;;;;15.80;90.45;101938.22;5009267;28;20037;-87
2022/05/20 01:22:53;;;;;;;27.38;16.83;;;;;;;15.72;90.72;101941.63;5007294;28;20033;-82
2022/05/20 01:25:22;;;;;;;30.77;20.25;;;;;;;15.67;91.14;101931.66;5027983;28;20040;-87
2022/05/20 01:27:48;;;;;;;32.65;18.90;;;;;;;15.68;91.17;101928.06;5024590;28;20033;-85
2022/05/20 01:30:20;;;;;;;28.70;17.33;;;;;;;15.71;91.28;101929.56;5029627;28;20033;-83
2022/05/20 01:32:45;;;;;;;31.83;19.10;;;;;;;15.70;91.54;101927.91;5031343;28;20041;-84
2022/05/20 01:35:16;;;;;;;35.20;21.83;;;;;;;15.68;91.57;101919.41;5025847;28;20036;-83
2022/05/20 01:37:41;;;;;;;29.63;19.08;;;;;;;15.67;91.62;101918.59;5028405;28;20072;-86
2022/05/20 01:40:08;;;;;;;30.95;18.92;;;;;;;15.70;91.51;101920.88;5017447;28;20037;-83
2022/05/20 01:42:40;;;;;;;33.45;18.90;;;;;;;15.68;91.22;101911.56;5014283;28;20029;-83
2022/05/20 01:45:14;;;;;;;28.02;18.08;;;;;;;15.68;91.24;101914.19;5030406;28;20041;-83
2022/05/20 01:48:02;;;;;;;27.63;17.23;;;;;;;15.64;90.92;101915.50;5028582;28;20177;-87
2022/05/20 01:50:35;;;;;;;27.08;17.77;;;;;;;15.62;90.93;101910.41;5030192;28;20514;-83
2022/05/20 01:53:39;;;;;;;31.98;18.83;;;;;;;15.62;90.86;101910.41;5033361;28;20037;-84
2022/05/20 01:56:15;;;;;;;32.17;17.50;;;;;;;15.61;90.54;101910.56;5018579;28;20034;-84
2022/05/20 01:58:43;;;;;;;29.42;18.75;;;;;;;15.61;90.36;101900.91;5035972;28;20109;-85
2022/05/20 02:01:15;;;;;;;31.75;18.95;;;;;;;15.60;89.89;101891.47;5025483;28;20025;-84
2022/05/20 02:03:49;;;;;;;30.00;19.13;;;;;;;15.56;89.75;101882.31;5053951;28;20038;-84
2022/05/20 02:06:19;;;;;;;34.83;21.42;;;;;;;15.49;89.68;101886.56;5037747;28;20594;-84
2022/05/20 02:08:51;;;;;;;30.63;18.00;;;;;;;15.48;89.89;101882.28;5036263;28;20125;-85
2022/05/20 02:11:26;;;;;;;29.52;18.90;;;;;;;15.47;89.39;101883.28;5017281;28;20103;-85
2022/05/20 02:14:12;;;;;;;26.75;17.38;;;;;;;15.43;89.32;101876.75;5024701;28;20052;-86
2022/05/20 02:16:43;;;;;;;29.23;18.70;;;;;;;15.36;89.71;101866.94;5021387;28;20056;-86
2022/05/20 02:19:38;;;;;;;28.85;18.58;;;;;;;15.34;89.81;101879.34;5022112;28;20095;-85
2022/05/20 02:22:09;;;;;;;29.23;18.08;;;;;;;15.32;89.56;101878.69;5033556;28;20037;-85
2022/05/20 02:24:37;;;;;;;27.40;18.30;;;;;;;15.28;89.59;101872.16;5037912;28;20033;-84
2022/05/20 02:27:06;;;;;;;28.45;17.90;;;;;;;15.25;89.61;101884.72;5039612;28;20076;-84
2022/05/20 02:29:47;;;;;;;28.73;18.30;;;;;;;15.23;89.42;101891.91;5042226;28;20041;-85
2022/05/20 02:32:34;;;;;;;30.20;18.77;;;;;;;15.21;89.51;101886.81;5036994;28;20037;-83
2022/05/20 02:35:00;;;;;;;27.17;17.88;;;;;;;15.20;89.53;101882.59;5043933;28;20025;-84
2022/05/20 02:37:35;;;;;;;36.80;22.42;;;;;;;15.16;89.32;101879.47;5036603;28;20033;-85
2022/05/20 02:40:02;;;;;;;29.05;16.98;;;;;;;15.14;89.76;101885.81;5018871;28;20037;-85
2022/05/20 02:42:28;;;;;;;35.70;20.63;;;;;;;15.09;90.46;101888.94;5031069;28;20029;-85
2022/05/20 02:44:55;;;;;;;32.22;20.48;;;;;;;15.04;91.18;101882.53;5029536;28;20034;-85
2022/05/20 02:47:21;;;;;;;33.35;18.77;;;;;;;14.98;91.98;101887.41;5028070;28;20038;-85
2022/05/20 02:49:47;;;;;;;29.70;18.65;;;;;;;14.96;92.45;101884.16;5029665;28;20508;-86
2022/05/20 02:52:13;;;;;;;40.35;25.98;;;;;;;14.94;92.66;101880.06;5029211;28;20030;-85
2022/05/20 02:54:38;;;;;;;42.63;24.63;;;;;;;14.93;92.72;101876.63;5030731;28;20135;-85
2022/05/20 02:57:04;;;;;;;32.63;20.38;;;;;;;14.87;93.01;101879.88;5016812;28;20037;-85
2022/05/20 03:04:58;;;;;;;41.33;25.27;;;;;;;14.78;93.35;101867.75;5033855;28;20038;-85
2022/05/20 03:07:24;;;;;;;40.42;25.65;;;;;;;14.74;93.63;101871.66;5015506;28;20041;-85
2022/05/20 03:09:51;;;;;;;36.38;23.15;;;;;;;14.76;93.51;101882.78;5031044;28;20030;-85
2022/05/20 03:12:18;;;;;;;36.53;22.17;;;;;;;14.74;93.29;101888.16;5013397;28;20041;-85
2022/05/20 03:14:43;;;;;;;37.50;21.38;;;;;;;14.74;93.12;101895.97;5033894;28;20322;-85
2022/05/20 03:17:09;;;;;;;34.45;22.50;;;;;;;14.76;93.04;101901.84;5020460;28;20037;-85
2022/05/20 03:19:34;;;;;;;35.25;22.38;;;;;;;14.77;92.58;101892.25;5036673;28;20041;-84
2022/05/20 03:22:02;;;;;;;39.63;22.55;;;;;;;14.79;92.56;101879.84;5042939;28;20040;-85
2022/05/20 03:24:28;;;;;;;31.80;20.98;;;;;;;14.79;92.30;101882.47;5052655;28;20048;-85
2022/05/20 03:26:53;;;;;;;33.70;20.30;;;;;;;14.78;92.43;101881.63;5025328;28;20037;-84
2022/05/20 03:29:19;;;;;;;36.28;21.52;;;;;;;14.74;92.75;101869.06;5037757;28;20013;-85
2022/05/20 03:31:45;;;;;;;46.13;25.27;;;;;;;14.66;93.06;101863.81;5038068;28;20029;-85
2022/05/20 03:34:11;;;;;;;34.70;22.88;;;;;;;14.58;93.16;101857.59;5040218;28;20037;-86
2022/05/20 03:36:41;;;;;;;35.47;22.75;;;;;;;14.58;93.53;101854.16;5036473;28;21463;-84
2022/05/20 03:39:09;;;;;;;35.67;23.30;;;;;;;14.54;93.75;101855.41;5040616;28;20033;-84
2022/05/20 03:41:34;;;;;;;34.35;21.30;;;;;;;14.50;94.08;101857.50;5039037;28;20580;-85
2022/05/20 03:44:00;;;;;;;31.23;20.08;;;;;;;14.51;94.01;101859.16;5018521;28;20055;-85
2022/05/20 03:46:26;;;;;;;29.75;20.67;;;;;;;14.52;94.20;101860.78;5032537;28;20025;-85
2022/05/20 03:48:52;;;;;;;33.45;21.33;;;;;;;14.56;94.04;101863.88;5036749;28;20034;-85
2022/05/20 03:51:18;;;;;;;34.58;21.60;;;;;;;14.59;93.78;101871.44;5039314;28;20087;-85
2022/05/20 03:53:43;;;;;;;40.20;22.88;;;;;;;14.62;93.34;101872.91;5019715;28;20695;-85
2022/05/20 03:56:09;;;;;;;32.25;20.38;;;;;;;14.65;92.84;101872.59;5039697;28;20017;-85
2022/05/20 03:58:37;;;;;;;36.90;23.13;;;;;;;14.66;92.81;101877.69;5035505;28;20138;-85
2022/05/20 04:03:50;;;;;;;33.17;20.15;;;;;;;14.67;92.27;101883.72;5036848;28;20060;-85
2022/05/20 04:06:16;;;;;;;35.60;21.92;;;;;;;14.65;92.47;101878.63;5017296;28;20025;-86
2022/05/20 04:08:41;;;;;;;42.55;25.85;;;;;;;14.63;92.66;101874.56;5033432;28;20021;-85
2022/05/20 04:11:11;;;;;;;38.13;23.92;;;;;;;14.56;93.10;101879.53;5033824;28;20052;-85
2022/05/20 04:13:39;;;;;;;33.88;20.77;;;;;;;14.53;93.55;101872.84;5032354;28;20041;-83
2022/05/20 04:16:16;;;;;;;41.33;24.98;;;;;;;14.52;93.58;101871.22;5034163;28;20065;-85
2022/05/20 04:18:43;;;;;;;35.30;22.55;;;;;;;14.49;94.12;101870.72;5018328;28;20157;-84
2022/05/20 04:21:15;;;;;;;37.45;21.92;;;;;;;14.48;94.43;101869.06;5033274;28;20136;-86
2022/05/20 04:23:42;;;;;;;43.65;25.55;;;;;;;14.51;94.92;101871.38;5032242;28;21700;-85
2022/05/20 04:26:08;;;;;;;39.78;23.33;;;;;;;14.54;95.30;101858.84;5014362;28;20028;-85
2022/05/20 04:28:34;;;;;;;41.38;23.92;;;;;;;14.56;95.58;101859.50;5035799;28;20040;-85
2022/05/20 04:31:02;;;;;;;35.65;24.08;;;;;;;14.62;95.81;101857.25;5030917;28;20025;-84
2022/05/20 04:33:28;;;;;;;43.92;24.88;;;;;;;14.64;96.14;101858.75;5036192;28;20056;-85
2022/05/20 04:35:54;;;;;;;46.55;28.48;;;;;;;14.68;96.17;101856.66;5024684;28;20029;-83
2022/05/20 04:38:20;;;;;;;52.95;30.27;;;;;;;14.67;96.23;101861.03;5036531;28;20137;-85
2022/05/20 04:46:56;;;;;;;50.88;32.03;;;;;;;14.64;96.59;101857.94;5036880;28;20053;-84
2022/05/20 04:49:00;;;;;;;58.10;32.13;;;;;;;14.59;96.42;101846.16;5040559;28;20606;-84
2022/05/20 04:51:25;;;;;;;47.60;29.88;;;;;;;14.58;96.77;101849.75;5038253;28;20022;-84
2022/05/20 04:56:35;;;;;;;51.42;30.58;;;;;;;14.69;96.46;101842.59;5033636;28;20142;-85
2022/05/20 04:59:03;;;;;;;51.90;30.52;;;;;;;14.70;95.95;101845.06;5034854;28;20037;-85
2022/05/20 05:01:29;;;;;;;51.85;30.92;;;;;;;14.72;95.80;101839.69;5033070;28;20163;-83
2022/05/20 05:03:55;;;;;;;55.35;32.22;;;;;;;14.76;95.55;101830.56;5018552;28;20072;-84
2022/05/20 05:06:20;;;;;;;53.67;31.88;;;;;;;14.75;95.29;101826.31;5015757;28;20124;-85
2022/05/20 05:08:46;;;;;;;47.88;30.23;;;;;;;14.78;95.69;101826.00;5015326;28;20033;-84
2022/05/20 05:11:11;;;;;;;47.92;28.77;;;;;;;14.85;95.20;101828.81;5021851;28;20139;-85
2022/05/20 05:13:37;;;;;;;45.65;27.83;;;;;;;14.92;95.39;101833.22;5034635;28;20037;-85
2022/05/20 05:16:07;;;;;;;46.55;28.40;;;;;;;15.02;95.11;101821.81;5015498;28;20025;-85
2022/05/20 05:18:32;;;;;;;63.40;32.50;;;;;;;15.12;94.18;101819.88;5032750;28;20038;-85
2022/05/20 05:21:01;;;;;;;57.58;30.42;;;;;;;15.13;93.78;101816.28;5033910;28;20044;-85
2022/05/20 05:23:27;;;;;;;54.80;32.50;;;;;;;15.13;93.74;101811.88;5031278;28;20033;-85
2022/05/20 05:25:52;;;;;;;45.92;28.52;;;;;;;15.20;93.98;101814.66;5017394;28;20025;-84
2022/05/20 05:28:18;;;;;;;41.90;25.58;;;;;;;15.27;94.18;101807.78;5033820;28;20025;-85
2022/05/20 05:30:48;;;;;;;48.38;28.27;;;;;;;15.36;93.75;101801.59;5029283;28;20042;-84
2022/05/20 05:33:14;;;;;;;53.95;30.08;;;;;;;15.46;93.12;101800.63;5032739;28;20044;-84
2022/05/20 05:35:39;;;;;;;45.15;26.73;;;;;;;15.50;92.98;101784.47;5032217;28;20025;-86
2022/05/20 05:38:05;;;;;;;43.42;27.35;;;;;;;15.55;92.96;101786.56;5017824;28;20505;-85
2022/05/20 05:40:33;;;;;;;52.55;29.20;;;;;;;15.68;92.58;101788.69;5034075;28;20095;-85
2022/05/20 05:42:59;;;;;;;76.10;32.72;;;;;;;15.74;90.19;101791.47;5019706;28;20040;-85
2022/05/20 05:45:27;;;;;;;51.03;30.38;;;;;;;15.89;90.02;101783.75;5035412;28;20083;-86
2022/05/20 05:47:58;;;;;;;53.85;31.73;;;;;;;16.16;89.19;101773.88;5021185;28;20033;-84
2022/05/20 05:50:25;;;;;;;52.17;31.13;;;;;;;16.30;87.99;101765.31;5019829;28;20029;-86
2022/05/20 05:52:59;;;;;;;52.38;31.80;;;;;;;16.48;87.28;101767.69;5023019;28;20033;-84
2022/05/20 05:55:27;;;;;;;46.03;28.77;;;;;;;16.77;85.83;101760.97;5053064;28;20025;-84
2022/05/20 05:57:52;;;;;;;48.50;27.00;;;;;;;17.01;84.86;101764.44;5017309;28;20040;-85
2022/05/20 06:00:18;;;;;;;50.03;29.25;;;;;;;17.30;83.09;101759.28;5036660;28;20034;-85
2022/05/20 06:02:44;;;;;;;46.97;27.80;;;;;;;17.52;81.32;101756.81;5017927;28;20040;-85
2022/05/20 06:05:09;;;;;;;46.95;29.13;;;;;;;17.83;79.82;101764.53;5022229;28;20037;-84
2022/05/20 06:07:35;;;;;;;48.88;27.85;;;;;;;17.88;78.04;101766.66;5020795;28;20037;-84
2022/05/20 06:10:00;;;;;;;40.25;23.77;;;;;;;18.09;78.34;101769.34;5035463;28;20233;-85
2022/05/20 06:12:27;;;;;;;41.67;25.67;;;;;;;18.33;76.90;101764.81;5034334;28;20384;-86
2022/05/20 06:14:52;;;;;;;47.53;25.85;;;;;;;18.49;75.55;101763.75;5018859;28;20033;-83
2022/05/20 06:17:18;;;;;;;41.70;25.92;;;;;;;18.70;74.19;101749.03;5037937;28;20029;-84
2022/05/20 06:19:43;;;;;;;38.75;24.73;;;;;;;18.97;73.29;101758.03;5040735;28;20041;-84
2022/05/20 06:22:09;;;;;;;38.88;23.25;;;;;;;19.05;72.12;101760.50;5023544;28;20040;-85
2022/05/20 06:24:36;;;;;;;38.35;20.75;;;;;;;19.22;71.37;101753.19;5024679;28;20042;-85
2022/05/20 06:27:02;;;;;;;35.75;20.70;;;;;;;19.33;69.71;101747.41;5043166;28;20088;-83
2022/05/20 06:29:27;;;;;;;32.35;19.55;;;;;;;19.59;68.88;101740.69;5027820;28;20040;-84
2022/05/20 06:31:53;;;;;;;30.10;15.98;;;;;;;19.63;66.88;101744.56;5041497;28;20037;-84
2022/05/20 06:34:18;;;;;;;19.35;13.10;;;;;;;19.89;65.63;101749.19;5022870;28;20268;-85
2022/05/20 06:42:12;;;;;;;37.55;21.08;;;;;;;20.57;61.28;101765.03;5033013;28;20044;-83
2022/05/20 06:44:41;;;;;;;17.60;10.98;;;;;;;20.62;59.78;101767.09;5037545;28;20091;-83
2022/05/20 06:47:07;;;;;;;22.48;11.82;;;;;;;20.48;60.01;101770.69;5033380;28;20033;-84
2022/05/20 06:49:33;;;;;;;21.15;11.05;;;;;;;20.49;61.70;101764.41;5020260;28;20080;-84
2022/05/20 06:52:00;;;;;;;19.77;11.95;;;;;;;20.25;60.36;101771.00;5022690;28;20033;-85
2022/05/20 06:54:27;;;;;;;21.17;11.85;;;;;;;19.85;59.68;101769.00;5040099;28;20029;-86
2022/05/20 06:56:53;;;;;;;22.25;11.77;;;;;;;19.72;61.92;101761.84;5026369;28;20029;-83
2022/05/20 06:59:20;;;;;;;21.15;11.90;;;;;;;20.14;60.51;101746.06;5022578;28;20073;-85
2022/05/20 07:01:45;;;;;;;25.10;13.77;;;;;;;20.45;59.56;101742.91;5043537;28;20037;-86
2022/05/20 07:04:11;;;;;;;23.63;13.43;;;;;;;20.71;59.84;101736.13;5028185;28;20052;-84
2022/05/20 07:06:36;;;;;;;19.25;12.30;;;;;;;21.14;58.77;101733.91;5040439;28;20264;-85
2022/05/20 07:09:04;;;;;;;25.10;13.73;;;;;;;21.50;59.45;101724.75;5025238;28;20029;-84
2022/05/20 07:11:31;;;;;;;26.48;15.05;;;;;;;21.76;57.32;101723.88;5022273;28;20029;-84
2022/05/20 07:13:58;;;;;;;28.02;14.75;;;;;;;22.11;57.64;101718.28;5026316;28;20030;-85
2022/05/20 07:16:26;;;;;;;22.55;14.07;;;;;;;22.32;56.50;101721.63;5035531;28;20144;-84
2022/05/20 07:18:52;;;;;;;27.02;16.15;;;;;;;22.35;56.51;101706.16;5020295;28;20100;-86
2022/05/20 07:21:18;;;;;;;25.50;14.65;;;;;;;22.57;56.56;101703.19;5037419;28;20033;-86
2022/05/20 07:23:44;;;;;;;32.22;18.27;;;;;;;22.64;56.00;101687.25;5019359;28;20056;-85
2022/05/20 07:26:10;;;;;;;28.52;17.83;;;;;;;22.97;56.73;101688.84;5020412;28;20083;-85
2022/05/20 07:28:36;;;;;;;32.17;19.30;;;;;;;22.92;55.91;101692.97;5038167;28;20042;-85
2022/05/20 07:31:02;;;;;;;31.10;18.10;;;;;;;23.00;56.41;101699.81;5035789;28;20463;-85
2022/05/20 07:33:28;;;;;;;27.55;19.05;;;;;;;22.97;56.16;101694.94;5031606;28;20048;-83
2022/05/20 07:35:55;;;;;;;28.10;19.00;;;;;;;22.91;56.26;101691.31;5018507;28;20051;-83
2022/05/20 07:38:22;;;;;;;34.20;19.23;;;;;;;22.97;56.79;101684.34;5017809;28;20148;-84
2022/05/20 07:40:50;;;;;;;35.60;20.52;;;;;;;23.26;55.69;101688.19;5036987;28;20093;-84
2022/05/20 07:43:16;;;;;;;30.05;20.70;;;;;;;23.32;56.12;101684.66;5018926;28;20018;-84
2022/05/20 07:45:42;;;;;;;34.85;22.83;;;;;;;23.58;53.62;101685.38;5024793;28;20112;-84
2022/05/20 07:48:08;;;;;;;31.08;20.85;;;;;;;23.82;55.13;101672.31;5040659;28;20068;-84
2022/05/20 07:50:39;;;;;;;35.80;21.45;;;;;;;24.00;54.26;101664.34;5033287;28;20090;-84
2022/05/20 07:53:20;;;;;;;37.10;21.58;;;;;;;23.57;55.01;101672.41;5014746;23;20133;-73
2022/05/20 07:55:59;;;;;;;38.75;20.85;;;;;;;23.60;55.49;101656.06;4985711;28;20097;-72
2022/05/20 07:58:29;;;;;;;31.10;18.88;;;;;;;23.76;57.12;101663.38;4998615;28;20081;-72
2022/05/20 08:00:58;;;;;;;33.92;21.33;;;;;;;24.00;54.17;101659.03;4986503;28;20097;-72
2022/05/20 08:06:13;;;;;;;32.20;20.45;;;;;;;24.50;54.05;101652.59;4983365;28;20034;-72
2022/05/20 08:08:39;;;;;;;26.80;16.60;;;;;;;24.81;53.47;101643.53;4983690;28;20507;-72
2022/05/20 08:11:05;;;;;;;42.72;23.77;;;;;;;24.62;53.77;101647.31;5000841;28;20564;-72
2022/05/20 08:13:30;;;;;;;33.05;20.30;;;;;;;24.57;53.27;101633.97;4988266;28;20049;-73
2022/05/20 08:15:56;;;;;;;29.27;19.80;;;;;;;24.26;54.66;101639.31;4987794;28;20042;-72
2022/05/20 08:18:22;;;;;;;35.60;20.95;;;;;;;24.19;54.99;101629.84;4986415;28;20097;-72
2022/05/20 08:20:47;;;;;;;30.50;17.45;;;;;;;24.37;54.55;101636.91;4984168;28;20402;-72
2022/05/20 08:23:13;;;;;;;34.22;21.30;;;;;;;23.77;56.13;101627.97;4986906;28;20041;-72
2022/05/20 08:25:38;;;;;;;35.90;21.02;;;;;;;23.69;56.56;101634.34;4985751;28;20042;-72
2022/05/20 08:28:05;;;;;;;29.10;16.30;;;;;;;23.78;56.80;101639.34;4983962;28;20034;-72
2022/05/20 08:30:31;;;;;;;37.30;22.30;;;;;;;23.60;58.74;101635.72;4985375;28;20432;-72
2022/05/20 08:32:57;;;;;;;30.05;19.35;;;;;;;24.17;56.46;101630.06;4966540;28;20176;-72
2022/05/20 08:35:23;;;;;;;29.02;19.17;;;;;;;24.35;56.12;101628.38;4985026;28;20148;-72
2022/05/20 08:37:49;;;;;;;26.27;17.38;;;;;;;24.07;57.11;101630.63;4984606;28;20034;-72
2022/05/20 08:40:29;;;;;;;35.42;23.42;;;;;;;23.71;58.10;101620.88;4999240;28;20030;-72
2022/05/20 08:42:57;;;;;;;34.25;19.75;;;;;;;23.44;59.40;101623.88;4998123;28;20396;-75
2022/05/20 08:45:27;;;;;;;35.10;21.17;;;;;;;23.49;58.84;101621.38;4985590;28;20237;-72
2022/05/20 08:47:52;;;;;;;40.78;21.23;;;;;;;23.29;58.76;101615.50;4998218;28;20403;-72
2022/05/20 08:50:23;;;;;;;38.80;22.25;;;;;;;23.15;59.18;101603.44;4984803;28;20030;-72
2022/05/20 08:52:55;;;;;;;38.45;22.25;;;;;;;23.37;59.43;101601.97;4986307;28;20041;-72
2022/05/20 08:55:21;;;;;;;35.20;21.27;;;;;;;23.55;60.35;101590.56;5002279;28;20133;-73
2022/05/20 08:58:02;;;;;;;31.98;19.50;;;;;;;23.84;58.77;101588.97;4998769;28;20125;-72
2022/05/20 09:00:28;;;;;;;39.22;19.63;;;;;;;24.16;58.46;101580.75;4983757;28;20117;-75
2022/05/20 09:02:54;;;;;;;36.45;22.13;;;;;;;24.33;57.37;101575.59;4999698;28;20081;-72
2022/05/20 09:05:29;;;;;;;28.30;18.80;;;;;;;24.70;57.78;101575.41;4984256;28;20046;-72
2022/05/20 09:08:17;;;;;;;40.35;22.20;;;;;;;25.08;56.49;101565.31;4984488;28;20361;-72
2022/05/20 09:10:53;;;;;;;30.67;17.08;;;;;;;25.25;56.07;101559.06;4983659;28;20116;-72
2022/05/20 09:17:00;;;;;;;36.83;22.92;;;;;;;24.53;57.89;101551.44;4940631;28;20058;-72
2022/05/20 09:19:28;;;;;;;37.50;21.25;;;;;;;24.43;59.85;101551.16;4974471;28;20058;-72
2022/05/20 09:22:05;;;;;;;37.13;23.30;;;;;;;24.39;61.20;101542.91;4979028;28;20048;-74
2022/05/20 09:24:43;;;;;;;38.70;24.73;;;;;;;24.42;61.07;101546.91;4982551;28;20037;-72
2022/05/20 09:27:13;;;;;;;38.65;21.88;;;;;;;24.45;61.78;101554.41;4994242;28;20030;-72
2022/05/20 09:29:48;;;;;;;42.22;24.83;;;;;;;24.34;60.40;101540.13;4981345;28;20034;-72
2022/05/20 09:32:29;;;;;;;44.75;25.15;;;;;;;24.30;60.58;101536.31;4983024;28;20037;-72
2022/05/20 09:35:01;;;;;;;44.85;27.55;;;;;;;23.86;62.22;101523.34;4985229;28;20038;-72
2022/05/20 09:37:29;;;;;;;44.78;24.20;;;;;;;23.97;62.53;101524.41;4998869;28;20038;-72
2022/05/20 09:39:55;;;;;;;42.72;26.10;;;;;;;23.97;62.86;101520.97;4980028;28;20030;-72
2022/05/20 09:42:22;;;;;;;42.80;26.77;;;;;;;24.10;63.18;101518.91;4982071;28;20512;-72
2022/05/20 09:44:54;;;;;;;42.13;26.75;;;;;;;24.18;62.67;101503.72;4996346;28;20436;-72
2022/05/20 09:47:33;;;;;;;49.53;28.13;;;;;;;24.16;63.68;101501.28;4982534;28;20180;-72
2022/05/20 09:50:26;;;;;;;48.65;29.27;;;;;;;24.36;61.00;101500.94;4980484;28;20564;-75
2022/05/20 09:52:54;;;;;;;;;;;;;;;24.63;61.74;101493.34;4980566;28;20050;-72
2022/05/20 09:55:26;;;;;;;47.55;29.15;;;;;;;24.63;61.20;101500.50;4979159;28;19976;-73
2022/05/20 09:57:55;;;;;;;45.08;27.20;;;;;;;24.79;60.27;101491.81;4983017;28;20026;-72
2022/05/20 10:00:32;;;;;;;43.67;28.73;;;;;;;25.11;59.57;101490.56;4984904;28;20499;-73
2022/05/20 10:03:24;;;;;;;42.53;27.20;;;;;;;24.68;60.57;101488.16;4983530;28;20166;-74
2022/05/20 10:05:59;;;;;;;43.15;26.00;;;;;;;24.81;61.91;101478.34;4982026;28;20045;-72
2022/05/20 10:08:35;;;;;;;46.20;26.90;;;;;;;25.19;60.57;101459.16;4985189;28;20093;-74
2022/05/20 10:11:25;;;;;;;46.45;27.08;;;;;;;25.05;62.32;101450.69;4983190;28;20094;-73
2022/05/20 10:14:01;;;;;;;45.03;26.20;;;;;;;25.29;61.99;101452.44;4983107;28;20468;-73
2022/05/20 10:17:07;;;;;;;40.83;26.17;;;;;;;25.40;62.11;101439.13;4983745;28;20037;-72
2022/05/20 10:19:56;;;;;;;41.50;24.02;;;;;;;25.70;60.04;101418.63;4965426;28;20480;-72
2022/05/20 10:22:45;;;;;;;41.60;25.95;;;;;;;26.06;58.59;101403.22;5001121;28;20084;-72
2022/05/20 10:25:34;;;;;;;35.55;24.10;;;;;;;26.26;58.74;101381.41;5004114;28;20049;-74
2022/05/20 10:34:14;;;;;;;34.00;21.20;;;;;;;26.14;56.86;101362.94;5002875;28;20421;-72
2022/05/20 10:36:56;;;;;;;32.42;22.42;;;;;;;26.03;59.02;101344.22;4987747;28;20123;-74
2022/05/20 10:39:45;;;;;;;33.15;19.80;;;;;;;26.32;58.99;101332.59;5000587;28;20057;-72
2022/05/20 10:42:16;;;;;;;34.55;22.13;;;;;;;26.31;56.96;101339.75;4997498;28;20057;-72
2022/05/20 10:50:29;;;;;;;31.52;20.58;;;;;;;26.03;58.61;101333.59;4984975;28;20085;-72
2022/05/20 10:53:04;;;;;;;29.73;21.50;;;;;;;26.11;58.21;101324.41;4985151;28;20949;-72
2022/05/20 10:55:49;;;;;;;30.15;20.23;;;;;;;26.34;58.11;101309.25;4986645;28;20038;-72
2022/05/20 10:58:35;;;;;;;24.15;17.10;;;;;;;26.45;58.54;101304.81;4986173;28;20109;-72
2022/05/20 11:01:13;;;;;;;31.10;22.58;;;;;;;26.26;57.22;101296.38;4997461;28;20518;-73
2022/05/20 11:03:57;;;;;;;31.60;20.77;;;;;;;26.14;58.05;101291.19;5001585;28;20038;-72
2022/05/20 11:07:00;;;;;;;28.55;20.15;;;;;;;25.93;59.57;101290.16;4998636;28;20034;-72
2022/05/20 11:09:43;;;;;;;33.95;20.52;;;;;;;26.06;58.43;101278.38;4983947;28;20035;-72
2022/05/20 11:12:34;;;;;;;31.17;19.88;;;;;;;25.99;58.66;101262.59;4984837;28;20377;-72
2022/05/20 11:15:19;;;;;;;24.58;18.08;;;;;;;26.09;58.22;101252.09;4985819;28;20502;-72
2022/05/20 11:17:49;;;;;;;26.02;17.25;;;;;;;26.29;57.95;101240.06;4981152;28;20046;-72
2022/05/20 11:20:23;;;;;;;29.92;18.70;;;;;;;26.50;57.78;101230.44;4981385;28;20030;-73
2022/05/20 11:23:22;;;;;;;24.38;17.17;;;;;;;26.28;57.60;101219.88;4982186;28;20305;-72
2022/05/20 11:25:58;;;;;;;29.50;18.70;;;;;;;26.41;57.82;101212.28;4985299;28;20169;-73
2022/05/20 11:28:36;;;;;;;30.73;18.05;;;;;;;26.39;57.92;101208.25;4985487;28;20031;-73
2022/05/20 11:31:10;;;;;;;28.73;18.52;;;;;;;26.53;58.06;101190.06;4985456;28;20030;-72
2022/05/20 11:33:49;;;;;;;21.48;15.60;;;;;;;26.62;57.52;101193.91;5001652;28;20046;-72
2022/05/20 11:36:21;;;;;;;33.05;21.33;;;;;;;26.31;58.00;101193.59;5002299;28;20073;-73
2022/05/20 11:39:06;;;;;;;27.05;18.52;;;;;;;26.26;59.87;101174.13;4983722;28;20524;-74
2022/05/20 11:42:08;;;;;;;28.73;18.25;;;;;;;26.52;58.71;101154.72;4981244;28;20568;-72
2022/05/20 11:44:40;;;;;;;25.55;16.13;;;;;;;26.61;60.13;101141.75;4986112;28;20513;-72
2022/05/20 11:47:35;;;;;;;23.75;15.55;;;;;;;26.60;57.55;101135.66;4982532;28;20049;-73
2022/05/20 11:50:07;;;;;;;26.13;15.65;;;;;;;26.46;56.78;101121.16;4985326;28;20041;-72
2022/05/20 11:52:37;;;;;;;20.58;13.60;;;;;;;26.38;58.27;101103.81;4983573;28;20042;-74
2022/05/20 11:55:09;;;;;;;24.60;15.55;;;;;;;26.19;58.49;101090.13;5001706;28;20420;-72
2022/05/20 11:57:44;;;;;;;21.15;14.00;;;;;;;26.10;60.02;101078.34;4983591;28;20444;-74
2022/05/20 12:00:14;;;;;;;23.92;14.32;;;;;;;26.05;59.51;101075.66;5000753;28;20037;-72
2022/05/20 12:02:48;;;;;;;19.33;12.68;;;;;;;26.10;59.25;101069.59;4987318;28;20053;-72
2022/05/20 12:05:18;;;;;;;23.73;15.75;;;;;;;25.98;59.59;101080.38;5000151;28;20027;-72